Seikou Maru — JD4147 — position and weather

sailwx.info

Track history (hours):
 
Tides and Currents Weather Stations Pressure Air Temp Water Temp Dewpoint Dewpoint Depression Visibility Wind Speed Wind Dir Waves Ship Positions

Seikou Maru

Last reported at 2018-Jun-07 10:55 UTC. Time now 2018-Jul-22 12:44 UTC.
Position N 35°37' E 139°50'.
Warning: this ship's position is 45 days out of date.

Length 45 m; draft 2.1 m.

Type: Cargo ship. MMSI: 431009274.

Date/timePositionNaut miles runAvg speedWind from/ knotsBaromVisibWave heightAir tempDewpointWater temp
2018-Jun-07 10:55N 35°37' E 139°50'2 4.3
2018-Jun-07 10:30N 35°36' E 139°50'510.8
2018-Jun-07 10:00N 35°30' E 139°52'510.8
2018-Jun-07 09:30N 35°26' E 139°48'510.9
2018-Jun-07 09:00N 35°21' E 139°45'6 9.8
2018-Jun-07 08:21N 35°15' E 139°47'  
2018-Jun-05 00:14N 35°15' E 139°46'310.9
2018-Jun-05 00:01N 35°17' E 139°44'510.2
2018-Jun-04 23:30N 35°22' E 139°42'510.0
2018-Jun-04 23:01N 35°26' E 139°44'910.3
2018-Jun-04 22:07N 35°34' E 139°51'110.5
2018-Jun-04 22:00N 35°35' E 139°50'2 2.3
2018-Jun-04 20:59N 35°37' E 139°50'  
Track history (hours):
 
Tides and Currents Weather Stations Pressure Air Temp Water Temp Dewpoint Dewpoint Depression Visibility Wind Speed Wind Dir Waves Ship Positions

Seikou Maru

Last reported at 2018-Jun-07 10:55 UTC. Time now 2018-Jul-22 12:44 UTC.
Position N 35°37' E 139°50'.
Warning: this ship's position is 45 days out of date.

Length 45 m; draft 2.1 m.

Type: Cargo ship. MMSI: 431009274.

Date/timePositionNaut miles runAvg speedWind from/ knotsBaromVisibWave heightAir tempDewpointWater temp
2018-Jun-07 10:55N 35°37' E 139°50'2 4.3
2018-Jun-07 10:30N 35°36' E 139°50'510.8
2018-Jun-07 10:00N 35°30' E 139°52'510.8
2018-Jun-07 09:30N 35°26' E 139°48'510.9
2018-Jun-07 09:00N 35°21' E 139°45'6 9.8
2018-Jun-07 08:21N 35°15' E 139°47'  
2018-Jun-05 00:14N 35°15' E 139°46'310.9
2018-Jun-05 00:01N 35°17' E 139°44'510.2
2018-Jun-04 23:30N 35°22' E 139°42'510.0
2018-Jun-04 23:01N 35°26' E 139°44'910.3
2018-Jun-04 22:07N 35°34' E 139°51'110.5
2018-Jun-04 22:00N 35°35' E 139°50'2 2.3
2018-Jun-04 20:59N 35°37' E 139°50'  

Dump ship's entire track history